Aeroporto :
LOGIN :

Iscrizione | Disclaimer

   EN    FR    IT 

 










Sommario :    VFR   VFR Marginale   IFR   IFR Intensivo   IFR Molto Intensivo
Visibilità : 
Base nubi : 
>= 8 km
>= 3000ft
5 / 8 km
1000 / 3000 ft
1500m / 5 km
500 / 1000 ft
800 / 1500m
200 / 500 ft
< 800m
< 200 ft
Simboli :   Temporali  Nebbia  Neve Forte  Precipitazioni Forti  Vento > 20 kt
SIGMETs :   Varie  Temporali  Ghiacco  Turbolenza  Onda orograficha  Ceneri Vulcaniche






- Altitudine del aeroporto : 675 ft
- Codice IATA : RZE


EPRZ - Rzeszow-Jasionka

ULTIMO METAR :
  • 230000Z 09006KT CAVOK 11/10 Q1013

METARs OBSOLETI :
  • 222330Z 07004KT CAVOK 11/09 Q1013
  • 222300Z VRB02KT CAVOK 10/09 Q1013
  • 222230Z 10004KT CAVOK 11/09 Q1014
  • 222200Z VRB02KT CAVOK 14/10 Q1014
  • 222130Z 05003KT CAVOK 12/10 Q1014

TAF TAF EPRZ
Valido dal 23 a 00 ore il 24 a 00 ore UTC


222330Z 2300/2324 11006KT CAVOK
PROB30
TEMPO 2301/2305 3000 BR
BECMG 2306/2309 18010KT
TEMPO 2309/2318 20015G25KT



MetMap, La meteo Aeronautica in un colpo d'occhio ! - Copyright ORBIFLY Dicembre 2007 - Disclaimer

ORBIFLY MET'MAP TEAM :

Programmazione e sviluppo : Alexandra Zaïnal
Concezione : Baudouin d'Aumeries
Aiuto per la programmazione : Marc-Olivier Méhu
Supporto tecnico e logistico : Manuel Goepfert
Aiuto per la traduzione : Arnaldo La Scala

Contatto : metmap@orbifly.com




FONTI E CREDITI :

   NOAA